Starlight Venture — VRAL2 — position and weather

sailwx.info

Track history (hours):
 
Tides and Currents Weather Stations Pressure Air Temp Water Temp Dewpoint Dewpoint Depression Visibility Wind Speed Wind Dir Waves Ship Positions

Starlight Venture

Last reported at 2018-Feb-16 16:59 UTC. Time now 2018-Feb-20 21:35 UTC.
Position S 30°09' E 032°12'.

Length 333 m; draft 21 m.

Type: Tanker. MMSI: 477680100.

Date/timePositionNaut miles runAvg speedWind from/ knotsBaromVisibWave heightAir tempDewpointWater temp
2018-Feb-16 16:59S 30°09' E 032°12'613.3
2018-Feb-16 16:30S 30°04' E 032°17'713.4
2018-Feb-16 16:00S 29°59' E 032°23'713.2
2018-Feb-16 15:30S 29°54' E 032°28'613.1
2018-Feb-16 15:00S 29°50' E 032°33'713.1
2018-Feb-16 14:30S 29°45' E 032°38'813.1
2018-Feb-16 13:54S 29°39' E 032°44'713.2
2018-Feb-16 13:24S 29°34' E 032°49'513.2
2018-Feb-16 13:00S 29°30' E 032°53'813.2
2018-Feb-16 12:23S 29°24' E 032°60'  
Track history (hours):
 
Tides and Currents Weather Stations Pressure Air Temp Water Temp Dewpoint Dewpoint Depression Visibility Wind Speed Wind Dir Waves Ship Positions

Starlight Venture

Last reported at 2018-Feb-16 16:59 UTC. Time now 2018-Feb-20 21:35 UTC.
Position S 30°09' E 032°12'.

Length 333 m; draft 21 m.

Type: Tanker. MMSI: 477680100.

Date/timePositionNaut miles runAvg speedWind from/ knotsBaromVisibWave heightAir tempDewpointWater temp
2018-Feb-16 16:59S 30°09' E 032°12'613.3
2018-Feb-16 16:30S 30°04' E 032°17'713.4
2018-Feb-16 16:00S 29°59' E 032°23'713.2
2018-Feb-16 15:30S 29°54' E 032°28'613.1
2018-Feb-16 15:00S 29°50' E 032°33'713.1
2018-Feb-16 14:30S 29°45' E 032°38'813.1
2018-Feb-16 13:54S 29°39' E 032°44'713.2
2018-Feb-16 13:24S 29°34' E 032°49'513.2
2018-Feb-16 13:00S 29°30' E 032°53'813.2
2018-Feb-16 12:23S 29°24' E 032°60'  

Dump ship's entire track history